sensor_id;sensor_type;location;lat;lon;timestamp;temperature;humidity
47114;DHT22;32867;51.556;6.832;2022-11-20T11:09:38;14.40;99.90
47114;DHT22;32867;51.556;6.832;2022-11-20T11:14:45;12.70;99.90
47114;DHT22;32867;51.556;6.832;2022-11-20T11:20:11;11.40;99.90
47114;DHT22;32867;51.556;6.832;2022-11-20T11:30:40;10.30;94.90
47114;DHT22;32867;51.556;6.832;2022-11-20T11:35:49;9.70;94.40
47114;DHT22;32867;51.556;6.832;2022-11-20T11:40:54;9.10;93.60
47114;DHT22;32867;51.556;6.832;2022-11-20T11:45:55;8.60;96.00
47114;DHT22;32867;51.556;6.832;2022-11-20T11:50:56;8.30;97.00
47114;DHT22;32867;51.556;6.832;2022-11-20T11:56:08;8.00;99.20
47114;DHT22;32867;51.556;6.832;2022-11-20T12:01:27;8.00;99.90
47114;DHT22;32867;51.556;6.832;2022-11-20T12:06:30;8.00;99.90
47114;DHT22;32867;51.556;6.832;2022-11-20T12:11:37;7.80;99.90
47114;DHT22;32867;51.556;6.832;2022-11-20T12:16:39;7.70;99.90
47114;DHT22;32867;51.556;6.832;2022-11-20T12:43:29;7.10;99.90
47114;DHT22;32867;51.556;6.832;2022-11-20T12:54:32;7.10;99.90
47114;DHT22;32867;51.556;6.832;2022-11-20T13:10:29;7.00;99.90
47114;DHT22;32867;51.556;6.832;2022-11-20T13:15:54;7.10;99.90
47114;DHT22;32867;51.556;6.832;2022-11-20T13:20:58;7.20;99.90
47114;DHT22;32867;51.556;6.832;2022-11-20T13:26:20;7.10;99.90
47114;DHT22;32867;51.556;6.832;2022-11-20T13:31:43;7.10;99.90
47114;DHT22;32867;51.556;6.832;2022-11-20T13:36:52;7.00;99.90
47114;DHT22;32867;51.556;6.832;2022-11-20T13:41:57;7.00;99.90
47114;DHT22;32867;51.556;6.832;2022-11-20T13:46:58;6.90;99.90
47114;DHT22;32867;51.556;6.832;2022-11-20T14:02:21;7.00;99.90
47114;DHT22;32867;51.556;6.832;2022-11-20T14:07:26;7.10;99.90
47114;DHT22;32867;51.556;6.832;2022-11-20T14:12:33;7.20;99.90
47114;DHT22;32867;51.556;6.832;2022-11-20T14:17:35;7.20;99.90
47114;DHT22;32867;51.556;6.832;2022-11-20T14:22:36;7.20;99.90
47114;DHT22;32867;51.556;6.832;2022-11-20T14:27:39;6.90;99.90
47114;DHT22;32867;51.556;6.832;2022-11-20T14:32:42;6.80;99.90
47114;DHT22;32867;51.556;6.832;2022-11-20T14:37:44;6.70;99.90
47114;DHT22;32867;51.556;6.832;2022-11-20T14:42:44;6.80;99.90
47114;DHT22;32867;51.556;6.832;2022-11-20T14:47:46;6.70;99.90
47114;DHT22;32867;51.556;6.832;2022-11-20T14:52:58;6.80;99.90
47114;DHT22;32867;51.556;6.832;2022-11-20T14:58:03;7.10;99.90
47114;DHT22;32867;51.556;6.832;2022-11-20T15:03:15;7.00;99.90
47114;DHT22;32867;51.556;6.832;2022-11-20T15:08:17;6.90;99.90
47114;DHT22;32867;51.556;6.832;2022-11-20T15:13:34;6.90;99.90
47114;DHT22;32867;51.556;6.832;2022-11-20T15:18:38;6.80;99.90
47114;DHT22;32867;51.556;6.832;2022-11-20T15:23:40;6.80;99.90
47114;DHT22;32867;51.556;6.832;2022-11-20T15:28:42;6.80;99.90
47114;DHT22;32867;51.556;6.832;2022-11-20T15:33:44;6.80;99.90
47114;DHT22;32867;51.556;6.832;2022-11-20T15:38:45;6.90;99.90
47114;DHT22;32867;51.556;6.832;2022-11-20T15:43:45;7.00;99.90
47114;DHT22;32867;51.556;6.832;2022-11-20T15:48:51;7.00;99.90
47114;DHT22;32867;51.556;6.832;2022-11-20T15:53:52;6.80;99.90
47114;DHT22;32867;51.556;6.832;2022-11-20T15:58:53;6.90;99.90
47114;DHT22;32867;51.556;6.832;2022-11-20T16:03:53;6.80;99.90
47114;DHT22;32867;51.556;6.832;2022-11-20T16:08:54;6.70;99.90
47114;DHT22;32867;51.556;6.832;2022-11-20T16:13:55;6.60;99.90
47114;DHT22;32867;51.556;6.832;2022-11-20T16:19:14;6.50;99.90
47114;DHT22;32867;51.556;6.832;2022-11-20T16:24:16;6.50;99.90
47114;DHT22;32867;51.556;6.832;2022-11-20T16:29:16;6.40;99.90
47114;DHT22;32867;51.556;6.832;2022-11-20T16:34:17;6.40;99.90
47114;DHT22;32867;51.556;6.832;2022-11-20T16:39:19;6.30;99.90
47114;DHT22;32867;51.556;6.832;2022-11-20T16:44:19;6.40;99.90
47114;DHT22;32867;51.556;6.832;2022-11-20T16:49:20;6.30;99.90
47114;DHT22;32867;51.556;6.832;2022-11-20T16:54:21;6.30;99.90
47114;DHT22;32867;51.556;6.832;2022-11-20T16:59:21;6.40;99.90
47114;DHT22;32867;51.556;6.832;2022-11-20T17:04:22;6.50;99.90
47114;DHT22;32867;51.556;6.832;2022-11-20T17:09:23;6.50;99.90
47114;DHT22;32867;51.556;6.832;2022-11-20T17:14:23;6.60;99.90
47114;DHT22;32867;51.556;6.832;2022-11-20T17:19:24;6.60;99.90
47114;DHT22;32867;51.556;6.832;2022-11-20T17:24:24;6.60;99.90
47114;DHT22;32867;51.556;6.832;2022-11-20T17:29:25;6.60;99.90
47114;DHT22;32867;51.556;6.832;2022-11-20T17:34:26;6.70;99.90
47114;DHT22;32867;51.556;6.832;2022-11-20T17:39:26;6.90;99.90
47114;DHT22;32867;51.556;6.832;2022-11-20T17:44:27;6.90;99.90
47114;DHT22;32867;51.556;6.832;2022-11-20T17:49:28;7.00;99.90
47114;DHT22;32867;51.556;6.832;2022-11-20T17:54:28;6.90;99.90
47114;DHT22;32867;51.556;6.832;2022-11-20T17:59:29;6.90;99.90
47114;DHT22;32867;51.556;6.832;2022-11-20T18:10:52;6.90;99.90
47114;DHT22;32867;51.556;6.832;2022-11-20T18:28:38;6.80;99.90
47114;DHT22;32867;51.556;6.832;2022-11-20T18:33:39;6.80;99.90
47114;DHT22;32867;51.556;6.832;2022-11-20T18:38:40;6.80;99.90
47114;DHT22;32867;51.556;6.832;2022-11-20T18:43:43;6.70;99.90
47114;DHT22;32867;51.556;6.832;2022-11-20T18:49:02;6.90;99.90
47114;DHT22;32867;51.556;6.832;2022-11-20T18:54:03;7.00;99.90
47114;DHT22;32867;51.556;6.832;2022-11-20T18:59:12;7.00;99.90
47114;DHT22;32867;51.556;6.832;2022-11-20T19:04:14;7.00;99.90
47114;DHT22;32867;51.556;6.832;2022-11-20T19:09:15;7.10;99.90
47114;DHT22;32867;51.556;6.832;2022-11-20T19:14:17;7.20;99.90
47114;DHT22;32867;51.556;6.832;2022-11-20T19:19:17;7.20;99.90
47114;DHT22;32867;51.556;6.832;2022-11-20T19:24:18;7.30;99.90
47114;DHT22;32867;51.556;6.832;2022-11-20T19:29:19;7.40;99.90
47114;DHT22;32867;51.556;6.832;2022-11-20T19:34:20;7.60;99.90
47114;DHT22;32867;51.556;6.832;2022-11-20T19:39:21;7.70;99.90
47114;DHT22;32867;51.556;6.832;2022-11-20T19:44:22;7.70;99.90
47114;DHT22;32867;51.556;6.832;2022-11-20T19:49:23;7.80;99.90
47114;DHT22;32867;51.556;6.832;2022-11-20T19:54:23;7.90;99.90
47114;DHT22;32867;51.556;6.832;2022-11-20T19:59:24;7.90;99.90
47114;DHT22;32867;51.556;6.832;2022-11-20T20:04:25;7.90;99.90
47114;DHT22;32867;51.556;6.832;2022-11-20T20:09:26;8.00;99.90
47114;DHT22;32867;51.556;6.832;2022-11-20T20:14:27;7.90;99.90
47114;DHT22;32867;51.556;6.832;2022-11-20T20:19:27;8.00;99.90
47114;DHT22;32867;51.556;6.832;2022-11-20T20:24:28;7.90;99.90
47114;DHT22;32867;51.556;6.832;2022-11-20T20:29:28;7.90;99.90
47114;DHT22;32867;51.556;6.832;2022-11-20T20:34:29;7.80;99.90
47114;DHT22;32867;51.556;6.832;2022-11-20T20:39:31;7.80;99.90
47114;DHT22;32867;51.556;6.832;2022-11-20T20:44:32;7.80;99.90
47114;DHT22;32867;51.556;6.832;2022-11-20T20:49:51;7.70;99.90
47114;DHT22;32867;51.556;6.832;2022-11-20T20:54:52;7.70;99.90
47114;DHT22;32867;51.556;6.832;2022-11-20T20:59:53;7.70;99.90
47114;DHT22;32867;51.556;6.832;2022-11-20T21:04:55;7.60;99.90
47114;DHT22;32867;51.556;6.832;2022-11-20T21:09:55;7.40;99.90
47114;DHT22;32867;51.556;6.832;2022-11-20T21:14:56;7.30;99.90
47114;DHT22;32867;51.556;6.832;2022-11-20T21:19:56;7.20;99.90
47114;DHT22;32867;51.556;6.832;2022-11-20T21:24:57;7.20;99.90
47114;DHT22;32867;51.556;6.832;2022-11-20T21:29:58;7.20;99.90
47114;DHT22;32867;51.556;6.832;2022-11-20T21:34:58;7.10;99.90
47114;DHT22;32867;51.556;6.832;2022-11-20T21:39:59;7.00;99.90
47114;DHT22;32867;51.556;6.832;2022-11-20T21:45:00;6.90;99.90
47114;DHT22;32867;51.556;6.832;2022-11-20T21:50:00;6.90;99.90
47114;DHT22;32867;51.556;6.832;2022-11-20T21:55:01;6.70;99.90
47114;DHT22;32867;51.556;6.832;2022-11-20T22:00:03;6.70;99.90
47114;DHT22;32867;51.556;6.832;2022-11-20T22:05:10;6.50;99.90
47114;DHT22;32867;51.556;6.832;2022-11-20T22:10:11;6.50;99.90
47114;DHT22;32867;51.556;6.832;2022-11-20T22:15:12;6.50;99.90
47114;DHT22;32867;51.556;6.832;2022-11-20T22:20:15;6.50;99.90
47114;DHT22;32867;51.556;6.832;2022-11-20T22:25:15;6.50;99.90
47114;DHT22;32867;51.556;6.832;2022-11-20T22:30:16;6.50;99.90
47114;DHT22;32867;51.556;6.832;2022-11-20T22:35:17;6.40;99.90
47114;DHT22;32867;51.556;6.832;2022-11-20T22:40:17;6.40;99.90
47114;DHT22;32867;51.556;6.832;2022-11-20T22:45:19;6.50;99.90
47114;DHT22;32867;51.556;6.832;2022-11-20T22:50:20;6.40;99.90
47114;DHT22;32867;51.556;6.832;2022-11-20T22:55:20;6.40;99.90
47114;DHT22;32867;51.556;6.832;2022-11-20T23:00:21;6.30;99.90
47114;DHT22;32867;51.556;6.832;2022-11-20T23:05:22;6.30;99.90
47114;DHT22;32867;51.556;6.832;2022-11-20T23:10:22;6.40;99.90
47114;DHT22;32867;51.556;6.832;2022-11-20T23:15:23;6.50;99.90
47114;DHT22;32867;51.556;6.832;2022-11-20T23:20:24;6.50;99.90
47114;DHT22;32867;51.556;6.832;2022-11-20T23:25:24;6.50;99.90
47114;DHT22;32867;51.556;6.832;2022-11-20T23:30:25;6.50;99.90
47114;DHT22;32867;51.556;6.832;2022-11-20T23:35:25;6.50;99.90
47114;DHT22;32867;51.556;6.832;2022-11-20T23:40:26;6.50;99.90
47114;DHT22;32867;51.556;6.832;2022-11-20T23:45:26;6.50;99.90
47114;DHT22;32867;51.556;6.832;2022-11-20T23:50:27;6.50;99.90
47114;DHT22;32867;51.556;6.832;2022-11-20T23:55:28;6.50;99.90
